Time;durP1;ratioP1;P1;durP2;ratioP2;P2;SDS_P1;SDS_P2;PMS_P1;PMS_P2;Temp;Humidity;BMP_temperature;BMP_pressure;BME280_temperature;BME280_humidity;BME280_pressure;Samples;Min_cycle;Max_cycle;Signal;HPM_P1;HPM_P2
2021/03/15 00:01:29;;;;;;;19.53;5.37;;;6.90;91.90;;;;;;5114605;28;20027;-77
2021/03/15 00:03:55;;;;;;;18.83;5.03;;;6.90;91.90;;;;;;5113372;28;20053;-77
2021/03/15 00:06:20;;;;;;;25.07;5.23;;;6.90;92.00;;;;;;5114627;28;20024;-77
2021/03/15 00:08:46;;;;;;;13.73;4.63;;;6.90;92.00;;;;;;5114931;28;20084;-78
2021/03/15 00:11:11;;;;;;;19.60;5.50;;;6.90;92.30;;;;;;5113109;28;20051;-77
2021/03/15 00:13:37;;;;;;;21.20;5.93;;;6.90;92.70;;;;;;5114523;28;20031;-79
2021/03/15 00:16:03;;;;;;;30.30;7.90;;;6.80;92.70;;;;;;5114739;28;20028;-79
2021/03/15 00:18:30;;;;;;;30.03;8.30;;;6.90;92.80;;;;;;5113198;28;20103;-79
2021/03/15 00:20:55;;;;;;;24.93;8.07;;;6.90;92.70;;;;;;5096533;28;20380;-79
2021/03/15 00:23:21;;;;;;;24.33;8.30;;;6.90;92.60;;;;;;5113249;28;20032;-79
2021/03/15 00:25:47;;;;;;;26.10;7.97;;;7.00;92.70;;;;;;5114552;28;20035;-79
2021/03/15 00:28:12;;;;;;;18.13;7.13;;;7.00;92.70;;;;;;5096081;28;20047;-79
2021/03/15 00:30:38;;;;;;;22.07;8.77;;;7.00;92.80;;;;;;5112963;28;20381;-79
2021/03/15 00:33:04;;;;;;;17.33;8.17;;;7.10;92.30;;;;;;5112630;28;20028;-79
2021/03/15 00:35:30;;;;;;;24.90;9.00;;;7.30;91.90;;;;;;5114292;28;20023;-79
2021/03/15 00:37:55;;;;;;;25.17;9.33;;;7.40;91.70;;;;;;5096090;28;20023;-80
2021/03/15 00:40:21;;;;;;;27.80;9.27;;;7.40;91.90;;;;;;5096177;28;20027;-80
2021/03/15 00:42:48;;;;;;;26.47;10.77;;;7.40;92.30;;;;;;5112892;28;20020;-78
2021/03/15 00:45:14;;;;;;;28.07;11.20;;;7.40;92.10;;;;;;5114106;28;20016;-79
2021/03/15 00:47:40;;;;;;;33.97;11.87;;;7.40;92.40;;;;;;5113241;28;20061;-80
2021/03/15 00:50:07;;;;;;;24.83;10.67;;;7.30;92.40;;;;;;5095838;28;20114;-79
2021/03/15 00:52:33;;;;;;;27.87;10.30;;;7.30;93.40;;;;;;5112746;28;20040;-78
2021/03/15 00:54:58;;;;;;;28.77;11.07;;;7.30;93.00;;;;;;5118001;28;20036;-79
2021/03/15 00:57:24;;;;;;;21.57;9.30;;;7.30;92.90;;;;;;5113938;28;20027;-77
2021/03/15 00:59:50;;;;;;;21.00;8.97;;;7.40;92.70;;;;;;5114506;28;20380;-77
2021/03/15 01:02:15;;;;;;;29.30;10.37;;;7.40;92.60;;;;;;5095658;28;20078;-78
2021/03/15 01:04:41;;;;;;;25.63;10.47;;;7.30;93.10;;;;;;5113522;28;20408;-78
2021/03/15 01:07:08;;;;;;;24.20;8.97;;;7.40;93.00;;;;;;5113539;28;20077;-78
2021/03/15 01:09:34;;;;;;;29.33;10.07;;;7.40;93.40;;;;;;5112642;28;20030;-78
2021/03/15 01:11:59;;;;;;;24.67;9.93;;;7.40;93.30;;;;;;5095453;28;20035;-77
2021/03/15 01:14:25;;;;;;;25.17;8.83;;;7.40;93.30;;;;;;5113541;28;20032;-77
2021/03/15 01:16:50;;;;;;;28.27;10.60;;;7.40;93.50;;;;;;5112596;28;20431;-77
2021/03/15 01:19:16;;;;;;;35.30;9.87;;;7.30;93.50;;;;;;5113749;28;20028;-77
2021/03/15 01:21:41;;;;;;;27.90;11.03;;;7.30;93.70;;;;;;5112473;28;20431;-78
2021/03/15 01:24:07;;;;;;;28.43;11.77;;;7.40;93.60;;;;;;5112224;28;20071;-78
2021/03/15 01:26:33;;;;;;;33.20;10.87;;;7.40;93.60;;;;;;5112332;28;20034;-77
2021/03/15 01:29:00;;;;;;;31.77;13.03;;;7.40;93.40;;;;;;5112392;28;20024;-77
2021/03/15 01:31:26;;;;;;;33.83;15.10;;;7.50;93.50;;;;;;5113626;28;20028;-77
2021/03/15 01:33:51;;;;;;;39.20;14.13;;;7.50;93.10;;;;;;5113241;28;20612;-77
2021/03/15 01:36:17;;;;;;;37.23;12.63;;;7.60;93.30;;;;;;5113635;28;20127;-77
2021/03/15 01:38:42;;;;;;;29.35;11.23;;;7.70;93.00;;;;;;5095237;28;20028;-77
2021/03/15 01:41:08;;;;;;;26.40;11.63;;;7.70;92.90;;;;;;5114742;28;20042;-76
2021/03/15 01:43:34;;;;;;;38.67;12.02;;;7.70;92.80;;;;;;5116052;28;20471;-77
2021/03/15 01:46:00;;;;;;;34.53;13.88;;;7.70;92.90;;;;;;5117442;28;20028;-77
2021/03/15 01:48:26;;;;;;;28.67;10.80;;;7.80;92.90;;;;;;5116939;28;20024;-77
2021/03/15 01:50:51;;;;;;;40.50;14.60;;;7.80;93.00;;;;;;5115584;28;20479;-76
2021/03/15 01:53:18;;;;;;;32.75;10.95;;;7.80;92.90;;;;;;5116703;28;20092;-76
2021/03/15 01:55:44;;;;;;;30.30;10.30;;;7.80;93.00;;;;;;5115891;28;20417;-76
2021/03/15 01:58:10;;;;;;;34.17;9.90;;;7.90;92.60;;;;;;5099002;28;20020;-76
2021/03/15 02:00:35;;;;;;;23.00;8.00;;;7.90;92.60;;;;;;5117033;28;20023;-76
2021/03/15 02:03:05;;;;;;;26.25;8.15;;;8.00;92.10;;;;;;5115271;28;20040;-77
2021/03/15 02:05:32;;;;;;;33.07;8.53;;;7.90;92.60;;;;;;5115717;28;20050;-77
2021/03/15 02:07:58;;;;;;;27.38;8.65;;;8.00;92.00;;;;;;5115523;28;20146;-76
2021/03/15 02:10:23;;;;;;;27.93;8.57;;;8.00;91.90;;;;;;5098624;28;20066;-79
2021/03/15 02:13:17;;;;;;;31.55;8.32;;;8.00;92.00;;;;;;5115407;28;20023;-79
2021/03/15 02:16:04;;;;;;;30.40;8.43;;;7.90;92.10;;;;;;5116653;28;20353;-78
2021/03/15 02:18:38;;;;;;;30.87;8.50;;;7.90;92.00;;;;;;5116874;28;20085;-78
2021/03/15 02:21:23;;;;;;;33.30;8.35;;;7.80;92.20;;;;;;5115401;28;20023;-78
2021/03/15 02:24:16;;;;;;;29.00;9.07;;;7.80;92.20;;;;;;5116243;28;20024;-78
2021/03/15 02:27:11;;;;;;;26.40;8.53;;;7.70;92.20;;;;;;5116402;28;20429;-79
2021/03/15 02:29:40;;;;;;;31.13;10.63;;;7.70;92.70;;;;;;5115615;28;20058;-78
2021/03/15 02:32:32;;;;;;;35.43;10.37;;;7.60;92.60;;;;;;5116354;28;20016;-79
2021/03/15 02:35:10;;;;;;;25.37;10.77;;;7.60;93.10;;;;;;5100202;28;20126;-78
2021/03/15 02:37:50;;;;;;;22.10;10.60;;;7.60;92.70;;;;;;5117525;28;20059;-78
2021/03/15 02:40:36;;;;;;;25.63;10.60;;;7.60;92.50;;;;;;5098784;28;20024;-78
2021/03/15 02:43:07;;;;;;;23.30;9.83;;;7.60;92.70;;;;;;5114642;28;20085;-78
2021/03/15 02:45:34;;;;;;;26.27;11.02;;;7.50;92.60;;;;;;5115033;28;20205;-78
2021/03/15 02:48:00;;;;;;;17.13;8.47;;;7.50;92.60;;;;;;5114822;28;20026;-78
2021/03/15 02:50:29;;;;;;;26.87;10.80;;;7.50;92.70;;;;;;5097843;28;20130;-79
2021/03/15 02:52:58;;;;;;;24.17;9.53;;;7.50;92.60;;;;;;5098160;28;20019;-78
2021/03/15 02:55:27;;;;;;;25.60;9.30;;;7.50;92.30;;;;;;5098007;28;20032;-78
2021/03/15 02:57:54;;;;;;;28.50;10.93;;;7.50;92.70;;;;;;5097441;28;20028;-78
2021/03/15 03:00:20;;;;;;;19.37;10.00;;;7.50;92.80;;;;;;5115494;28;20523;-78
2021/03/15 03:02:45;;;;;;;25.60;12.03;;;7.50;92.30;;;;;;5115440;28;20031;-79
2021/03/15 03:05:12;;;;;;;23.53;10.90;;;7.40;92.50;;;;;;5097498;28;20024;-78
2021/03/15 03:07:40;;;;;;;23.73;10.90;;;7.40;92.50;;;;;;5097626;28;20106;-79
2021/03/15 03:10:09;;;;;;;24.70;12.27;;;7.40;92.30;;;;;;5097709;28;20024;-78
2021/03/15 03:12:35;;;;;;;25.53;11.43;;;7.30;92.20;;;;;;5098138;28;20085;-78
2021/03/15 03:15:02;;;;;;;33.70;12.80;;;7.30;92.40;;;;;;5096933;28;20035;-79
2021/03/15 03:17:28;;;;;;;34.53;13.93;;;7.30;92.30;;;;;;5114353;28;20042;-79
2021/03/15 03:19:54;;;;;;;27.50;13.27;;;7.30;92.30;;;;;;5080293;28;20119;-79
2021/03/15 03:22:19;;;;;;;31.57;13.30;;;7.30;92.10;;;;;;5097309;28;20016;-78
2021/03/15 03:24:45;;;;;;;29.63;14.87;;;7.30;92.10;;;;;;5114366;28;20028;-79
2021/03/15 03:27:12;;;;;;;29.97;14.20;;;7.20;92.20;;;;;;5097390;28;20437;-78
2021/03/15 03:29:38;;;;;;;28.27;14.40;;;7.30;92.30;;;;;;5114058;28;20016;-78
2021/03/15 03:32:03;;;;;;;29.73;14.93;;;7.30;92.10;;;;;;5114018;28;20101;-79
2021/03/15 03:34:29;;;;;;;26.30;15.20;;;7.30;92.00;;;;;;5097014;28;20044;-79
2021/03/15 03:36:55;;;;;;;33.23;14.67;;;7.20;92.00;;;;;;5096709;28;20059;-79
2021/03/15 03:39:21;;;;;;;31.03;15.33;;;7.20;91.90;;;;;;5115182;28;20478;-79
2021/03/15 03:41:47;;;;;;;21.73;13.53;;;7.20;92.00;;;;;;5115001;28;20028;-79
2021/03/15 03:44:12;;;;;;;24.70;13.87;;;7.10;91.80;;;;;;5113886;28;20050;-79
2021/03/15 03:46:40;;;;;;;27.70;13.47;;;7.10;91.70;;;;;;5113883;28;20103;-78
2021/03/15 03:49:06;;;;;;;23.47;11.87;;;7.10;91.60;;;;;;5113658;28;20376;-78
2021/03/15 03:51:36;;;;;;;22.93;11.37;;;7.00;91.30;;;;;;5113748;28;20020;-79
2021/03/15 03:54:13;;;;;;;18.23;9.93;;;6.90;91.20;;;;;;5096806;28;20031;-78
2021/03/15 03:56:45;;;;;;;18.07;8.73;;;6.90;91.00;;;;;;5097088;28;20438;-78
2021/03/15 03:59:12;;;;;;;17.93;8.93;;;6.80;90.80;;;;;;5096817;28;20479;-79
2021/03/15 04:01:43;;;;;;;17.73;9.23;;;6.80;90.80;;;;;;5097033;28;20028;-79
2021/03/15 04:04:09;;;;;;;19.38;8.70;;;6.80;90.70;;;;;;5096227;28;20031;-78
2021/03/15 04:06:35;;;;;;;17.77;8.67;;;6.80;90.50;;;;;;5096334;28;20380;-78
2021/03/15 04:09:05;;;;;;;18.53;8.90;;;6.80;90.70;;;;;;5096163;28;20046;-78
2021/03/15 04:11:31;;;;;;;17.43;8.63;;;6.70;90.90;;;;;;5080643;28;20430;-78
2021/03/15 04:13:57;;;;;;;21.47;9.10;;;6.70;90.70;;;;;;5096395;28;20032;-78
2021/03/15 04:16:36;;;;;;;19.50;9.27;;;6.70;90.90;;;;;;5096379;28;20038;-78
2021/03/15 04:19:03;;;;;;;22.50;10.23;;;6.70;91.40;;;;;;5097807;28;20020;-79
2021/03/15 04:21:29;;;;;;;20.83;10.43;;;6.70;90.90;;;;;;5096780;28;20020;-78
2021/03/15 04:23:56;;;;;;;21.73;9.60;;;6.80;90.80;;;;;;5096204;28;20118;-79
2021/03/15 04:26:22;;;;;;;20.93;10.37;;;6.80;91.30;;;;;;5079492;28;20216;-79
2021/03/15 04:28:47;;;;;;;21.00;9.40;;;6.70;90.70;;;;;;5096519;28;20098;-78
2021/03/15 04:31:13;;;;;;;24.07;10.60;;;6.70;90.90;;;;;;5095828;28;20027;-79
2021/03/15 04:33:39;;;;;;;22.63;9.63;;;6.70;90.70;;;;;;5095811;28;20408;-79
2021/03/15 04:36:06;;;;;;;19.83;9.60;;;6.60;90.60;;;;;;5096024;28;20024;-79
2021/03/15 04:38:32;;;;;;;19.90;8.10;;;6.50;91.10;;;;;;5113139;28;20107;-79
2021/03/15 04:40:58;;;;;;;22.13;8.90;;;6.40;90.80;;;;;;5112621;28;20465;-79
2021/03/15 04:43:24;;;;;;;19.00;8.20;;;6.40;90.90;;;;;;5095911;28;20027;-79
2021/03/15 04:45:49;;;;;;;18.27;8.70;;;6.40;90.80;;;;;;5095998;28;20078;-79
2021/03/15 04:48:22;;;;;;;19.47;8.77;;;6.30;91.10;;;;;;5112948;28;20480;-78
2021/03/15 04:50:53;;;;;;;20.87;9.20;;;6.20;91.00;;;;;;5112621;28;20525;-78
2021/03/15 04:53:19;;;;;;;23.77;9.13;;;6.20;91.00;;;;;;5096714;28;20035;-78
2021/03/15 04:55:45;;;;;;;24.73;9.23;;;6.20;91.20;;;;;;5096173;28;20114;-79
2021/03/15 04:58:12;;;;;;;28.40;10.20;;;6.10;91.40;;;;;;5112765;28;20024;-78
2021/03/15 05:00:38;;;;;;;21.47;9.43;;;6.10;91.30;;;;;;5095790;28;20465;-78
2021/03/15 05:03:05;;;;;;;20.47;9.93;;;6.10;91.60;;;;;;5095791;28;20046;-79
2021/03/15 05:05:31;;;;;;;20.13;10.17;;;6.00;91.40;;;;;;5112701;28;20031;-78
2021/03/15 05:07:56;;;;;;;27.47;8.93;;;6.00;91.70;;;;;;5095470;28;20349;-79
2021/03/15 05:10:22;;;;;;;30.37;10.33;;;5.90;91.90;;;;;;5095996;28;20072;-79
2021/03/15 05:12:47;;;;;;;27.87;9.90;;;5.90;91.90;;;;;;5078547;28;20507;-78
2021/03/15 05:15:13;;;;;;;31.70;10.63;;;5.90;92.00;;;;;;5095665;28;20027;-78
2021/03/15 05:17:39;;;;;;;27.80;10.13;;;5.90;91.90;;;;;;5082685;28;20024;-78
2021/03/15 05:20:09;;;;;;;28.20;10.53;;;5.80;92.00;;;;;;5099426;28;20059;-79
2021/03/15 05:22:35;;;;;;;24.43;10.23;;;5.80;92.00;;;;;;5116526;28;20513;-80
2021/03/15 05:25:01;;;;;;;27.30;10.50;;;5.80;92.10;;;;;;5116223;28;20028;-80
2021/03/15 05:27:27;;;;;;;26.30;11.67;;;5.80;92.30;;;;;;5099027;28;20031;-80
2021/03/15 05:29:53;;;;;;;24.53;11.17;;;5.80;92.10;;;;;;5116089;28;20031;-79
2021/03/15 05:32:19;;;;;;;22.80;11.07;;;5.80;92.20;;;;;;5099850;28;20077;-81
2021/03/15 05:34:44;;;;;;;33.70;12.23;;;5.70;92.30;;;;;;5099130;28;20059;-80
2021/03/15 05:37:10;;;;;;;37.53;12.97;;;5.70;92.30;;;;;;5098972;28;20388;-80
2021/03/15 05:39:45;;;;;;;37.23;13.80;;;5.70;92.30;;;;;;5116146;28;20027;-80
2021/03/15 05:42:13;;;;;;;42.90;14.07;;;5.70;92.40;;;;;;5115649;28;20031;-80
2021/03/15 05:45:10;;;;;;;36.67;13.93;;;5.80;92.60;;;;;;5117012;28;20411;-80
2021/03/15 05:47:57;;;;;;;35.40;13.67;;;5.80;92.50;;;;;;5116935;28;20461;-80
2021/03/15 05:51:01;;;;;;;35.20;11.93;;;5.80;92.30;;;;;;5116173;28;20028;-80
2021/03/15 05:54:05;;;;;;;38.03;14.17;;;5.90;92.40;;;;;;5116003;28;20509;-80
2021/03/15 05:57:02;;;;;;;32.37;12.00;;;5.90;92.50;;;;;;5115847;28;20026;-80
2021/03/15 05:59:43;;;;;;;35.63;11.40;;;6.00;92.60;;;;;;5117161;28;20027;-80
2021/03/15 06:02:24;;;;;;;39.43;12.57;;;6.00;92.60;;;;;;5118678;28;20015;-79
2021/03/15 06:04:59;;;;;;;39.55;12.82;;;6.00;92.60;;;;;;5100210;28;20035;-80
2021/03/15 06:07:26;;;;;;;39.93;11.77;;;6.00;92.50;;;;;;5116387;28;20475;-80
2021/03/15 06:10:04;;;;;;;31.77;10.47;;;6.00;92.50;;;;;;5117199;28;20022;-81
2021/03/15 06:12:36;;;;;;;32.50;10.53;;;6.00;92.40;;;;;;5116423;28;20027;-80
2021/03/15 06:15:02;;;;;;;38.73;11.07;;;6.10;92.20;;;;;;5115615;28;20032;-80
2021/03/15 06:17:28;;;;;;;33.10;9.73;;;6.10;92.10;;;;;;5115896;28;20024;-80
2021/03/15 06:19:54;;;;;;;34.10;9.00;;;6.20;92.20;;;;;;5098887;28;20076;-80
2021/03/15 06:22:19;;;;;;;27.43;8.67;;;6.20;91.80;;;;;;5098464;28;20051;-80
2021/03/15 06:24:45;;;;;;;39.67;9.33;;;6.30;92.10;;;;;;5115422;28;20034;-80
2021/03/15 06:27:10;;;;;;;35.13;9.97;;;6.30;92.00;;;;;;5081068;28;20016;-80
2021/03/15 06:29:36;;;;;;;32.17;8.30;;;6.30;91.90;;;;;;5115261;28;20495;-80
2021/03/15 06:32:02;;;;;;;32.53;9.03;;;6.30;91.90;;;;;;5116105;28;20023;-80
2021/03/15 06:34:28;;;;;;;31.30;7.47;;;6.30;91.80;;;;;;5114989;28;20039;-81
2021/03/15 06:36:55;;;;;;;24.73;7.97;;;6.30;91.90;;;;;;5114994;28;20080;-80
2021/03/15 06:39:20;;;;;;;29.53;7.07;;;6.30;92.00;;;;;;5115359;28;20023;-81
2021/03/15 06:41:46;;;;;;;28.13;7.63;;;6.30;92.10;;;;;;5097831;28;20566;-80
2021/03/15 06:44:11;;;;;;;22.37;5.87;;;6.40;91.80;;;;;;5098046;28;20027;-80
2021/03/15 06:46:38;;;;;;;27.87;6.37;;;6.40;91.60;;;;;;5114509;28;20028;-81
2021/03/15 06:49:04;;;;;;;24.97;7.83;;;6.40;91.50;;;;;;5097868;28;20383;-80
2021/03/15 06:51:29;;;;;;;20.40;6.83;;;6.40;91.60;;;;;;5115940;28;20107;-81
2021/03/15 06:53:55;;;;;;;22.83;6.70;;;6.50;91.70;;;;;;5115828;28;20035;-79
2021/03/15 06:56:21;;;;;;;22.57;6.57;;;6.50;91.40;;;;;;5097713;28;20051;-80
2021/03/15 06:58:53;;;;;;;26.40;6.33;;;6.50;91.70;;;;;;5116902;28;20383;-80
2021/03/15 07:01:25;;;;;;;21.83;5.73;;;6.50;91.50;;;;;;5116230;28;20019;-80
2021/03/15 07:04:02;;;;;;;20.00;5.70;;;6.60;91.60;;;;;;5115950;28;20036;-80
2021/03/15 07:06:36;;;;;;;19.43;5.03;;;6.70;91.50;;;;;;5113557;28;20515;-82
2021/03/15 07:09:09;;;;;;;20.37;5.83;;;6.70;91.00;;;;;;5091294;28;20407;-81
2021/03/15 07:11:35;;;;;;;17.87;5.50;;;6.70;90.90;;;;;;5076086;28;20022;-80
2021/03/15 07:14:00;;;;;;;22.43;5.30;;;6.80;90.80;;;;;;5075592;28;20032;-80
2021/03/15 07:16:28;;;;;;;16.90;4.97;;;6.90;90.60;;;;;;5093796;28;20043;-80
2021/03/15 07:18:54;;;;;;;15.67;4.33;;;6.80;90.40;;;;;;5092968;28;20020;-80
2021/03/15 07:21:49;;;;;;;14.73;4.23;;;6.80;90.60;;;;;;5093385;28;20020;-81
2021/03/15 07:24:15;;;;;;;12.37;3.90;;;6.90;90.70;;;;;;5072225;28;20040;-82
2021/03/15 07:26:44;;;;;;;17.80;5.10;;;6.90;90.20;;;;;;5094437;28;20081;-80
2021/03/15 07:29:14;;;;;;;19.43;4.93;;;7.00;90.40;;;;;;5094779;28;20473;-80
2021/03/15 07:31:42;;;;;;;22.10;4.60;;;7.00;90.20;;;;;;5094759;28;20031;-79
2021/03/15 07:34:29;;;;;;;14.10;4.27;;;7.10;90.40;;;;;;5094626;28;20051;-79
2021/03/15 07:37:04;;;;;;;16.43;4.50;;;7.10;90.10;;;;;;5093424;28;20465;-79
2021/03/15 07:39:31;;;;;;;19.47;4.17;;;7.30;89.90;;;;;;5093716;28;20479;-79
2021/03/15 07:41:58;;;;;;;20.03;4.37;;;7.30;88.90;;;;;;5093262;28;20028;-79
2021/03/15 07:44:24;;;;;;;14.80;3.93;;;7.30;88.40;;;;;;5093563;28;20039;-80
2021/03/15 07:46:51;;;;;;;18.97;3.90;;;7.40;88.60;;;;;;5098002;28;20024;-81
2021/03/15 07:49:25;;;;;;;17.03;4.20;;;7.40;89.50;;;;;;5076072;28;20388;-80
2021/03/15 07:51:52;;;;;;;20.70;3.63;;;7.40;89.60;;;;;;5093141;28;20031;-80
2021/03/15 07:54:23;;;;;;;21.87;4.33;;;7.40;88.70;;;;;;5092514;28;20032;-80
2021/03/15 07:56:48;;;;;;;;;;;7.30;89.30;;;;;;5093398;28;20099;-80
2021/03/15 07:59:14;;;;;;;16.00;3.53;;;7.20;89.00;;;;;;5093702;28;20003;-80
2021/03/15 08:01:39;;;;;;;16.57;3.37;;;7.20;88.90;;;;;;5093015;28;20472;-79
2021/03/15 08:04:05;;;;;;;20.47;3.60;;;7.20;88.90;;;;;;5092936;28;20106;-79
2021/03/15 08:06:30;;;;;;;20.90;3.93;;;7.20;88.90;;;;;;5076026;28;20028;-81
2021/03/15 08:08:56;;;;;;;13.00;2.70;;;7.30;87.90;;;;;;5093081;28;20518;-79
2021/03/15 08:11:22;;;;;;;21.27;3.10;;;7.30;88.80;;;;;;5093032;28;20030;-81
2021/03/15 08:13:49;;;;;;;22.43;3.13;;;7.30;87.50;;;;;;5075851;28;20032;-79
2021/03/15 08:16:19;;;;;;;17.10;3.10;;;7.30;86.60;;;;;;5092679;28;20028;-80
2021/03/15 08:18:46;;;;;;;22.37;2.77;;;7.30;87.90;;;;;;5093903;28;20526;-79
2021/03/15 08:21:29;;;;;;;11.23;2.40;;;7.40;87.40;;;;;;5092499;28;20050;-79
2021/03/15 08:23:55;;;;;;;17.30;3.60;;;7.50;87.40;;;;;;5075790;28;20077;-80
2021/03/15 08:26:20;;;;;;;21.30;3.93;;;7.50;87.80;;;;;;5093556;28;20404;-80
2021/03/15 08:28:46;;;;;;;18.07;3.43;;;7.40;87.80;;;;;;5092528;28;20055;-79
2021/03/15 08:31:18;;;;;;;14.87;2.53;;;7.40;88.30;;;;;;5092409;28;20028;-79
2021/03/15 08:33:45;;;;;;;15.70;2.73;;;7.40;87.40;;;;;;5091519;28;20040;-79
2021/03/15 08:36:12;;;;;;;19.57;3.37;;;7.40;87.20;;;;;;5092556;28;20062;-79
2021/03/15 08:38:38;;;;;;;14.10;2.97;;;7.40;86.70;;;;;;5090751;28;20023;-80
2021/03/15 08:41:07;;;;;;;13.73;2.67;;;7.60;87.10;;;;;;5092466;28;20081;-79
2021/03/15 08:43:49;;;;;;;12.60;2.33;;;7.70;86.50;;;;;;5092091;28;20049;-80
2021/03/15 08:46:19;;;;;;;12.77;2.77;;;7.90;85.30;;;;;;5092092;28;20414;-85
2021/03/15 08:48:49;;;;;;;14.03;2.83;;;8.00;84.50;;;;;;5092950;28;20040;-80
2021/03/15 08:51:15;;;;;;;15.23;2.90;;;8.00;84.10;;;;;;5094299;28;20217;-79
2021/03/15 08:53:42;;;;;;;16.53;3.37;;;8.00;84.20;;;;;;5079783;28;20047;-80
2021/03/15 08:56:31;;;;;;;12.13;2.40;;;7.90;82.00;;;;;;5097110;28;20536;-80
2021/03/15 08:59:01;;;;;;;17.23;2.60;;;7.90;82.40;;;;;;5095626;28;20041;-80
2021/03/15 09:01:28;;;;;;;16.00;2.83;;;7.80;82.30;;;;;;5079840;28;20024;-80
2021/03/15 09:03:54;;;;;;;18.20;3.00;;;7.80;81.40;;;;;;5096404;28;20093;-79
2021/03/15 09:06:38;;;;;;;17.20;2.77;;;7.90;81.30;;;;;;5096415;28;20237;-79
2021/03/15 09:09:29;;;;;;;17.07;3.10;;;8.00;79.80;;;;;;5096143;28;20550;-81
2021/03/15 09:11:58;;;;;;;18.90;2.92;;;8.10;80.40;;;;;;5096659;28;20055;-81
2021/03/15 09:14:27;;;;;;;15.40;2.83;;;8.10;79.90;;;;;;5096776;28;20028;-81
2021/03/15 09:17:01;;;;;;;17.70;2.83;;;8.00;80.00;;;;;;5096176;28;20073;-80
2021/03/15 09:19:34;;;;;;;16.33;3.17;;;7.90;80.30;;;;;;5096649;28;20023;-82
2021/03/15 09:22:03;;;;;;;18.77;4.07;;;7.90;80.60;;;;;;5095204;28;20059;-80
2021/03/15 09:24:33;;;;;;;18.20;3.10;;;7.80;80.70;;;;;;5095016;28;20028;-77
2021/03/15 09:27:00;;;;;;;22.73;3.70;;;8.00;80.70;;;;;;5095588;28;20465;-80
2021/03/15 09:29:25;;;;;;;20.73;3.95;;;8.30;80.10;;;;;;5096291;28;20461;-80
2021/03/15 09:32:17;;;;;;;17.45;3.17;;;8.40;79.00;;;;;;5078720;28;20036;-80
2021/03/15 09:34:43;;;;;;;13.27;2.55;;;8.60;78.00;;;;;;5094666;28;20410;-79
2021/03/15 09:37:08;;;;;;;22.73;3.47;;;8.50;77.20;;;;;;5096904;28;20107;-79
2021/03/15 09:39:34;;;;;;;21.57;3.23;;;8.40;78.60;;;;;;5095501;28;20081;-79
2021/03/15 09:42:00;;;;;;;22.13;2.72;;;8.30;77.90;;;;;;5078808;28;20032;-80
2021/03/15 09:44:30;;;;;;;15.35;2.75;;;8.30;77.90;;;;;;5095610;28;20067;-80
2021/03/15 09:46:56;;;;;;;17.83;2.88;;;8.30;78.20;;;;;;5097068;28;20028;-79
2021/03/15 09:49:37;;;;;;;18.20;2.85;;;8.40;76.00;;;;;;5095679;28;20024;-80
2021/03/15 09:52:25;;;;;;;18.33;2.88;;;8.40;75.80;;;;;;5095457;28;20031;-79
2021/03/15 09:54:52;;;;;;;19.67;3.15;;;8.50;74.50;;;;;;5097190;28;20032;-79
2021/03/15 09:57:18;;;;;;;11.05;2.17;;;8.60;74.60;;;;;;5096540;28;20062;-79
2021/03/15 09:59:43;;;;;;;12.00;2.78;;;8.60;75.10;;;;;;5092756;28;20024;-78
2021/03/15 10:02:09;;;;;;;16.85;2.65;;;8.40;73.00;;;;;;5094362;28;20125;-78
2021/03/15 10:04:38;;;;;;;17.42;2.47;;;8.30;74.30;;;;;;5095334;28;20031;-79
2021/03/15 10:07:09;;;;;;;17.67;2.78;;;8.30;75.50;;;;;;5095545;28;20031;-80
2021/03/15 10:09:39;;;;;;;17.40;3.85;;;8.40;74.80;;;;;;5094870;28;20392;-80
2021/03/15 10:12:19;;;;;;;8.45;2.22;;;8.20;74.40;;;;;;5095379;28;20016;-80
2021/03/15 10:14:44;;;;;;;10.88;2.10;;;8.40;74.00;;;;;;5096304;28;20032;-80
2021/03/15 10:17:10;;;;;;;10.93;2.00;;;8.60;72.70;;;;;;5096252;28;20451;-80
2021/03/15 10:19:35;;;;;;;16.98;2.45;;;8.80;69.10;;;;;;5094826;28;20519;-82
2021/03/15 10:22:19;;;;;;;11.73;2.42;;;8.90;69.70;;;;;;5095677;28;20047;-80
2021/03/15 10:24:45;;;;;;;10.82;2.08;;;9.10;67.90;;;;;;5095028;28;20020;-79
2021/03/15 10:27:17;;;;;;;10.88;1.75;;;9.20;68.10;;;;;;5094515;28;20418;-79
2021/03/15 10:29:49;;;;;;;10.43;2.05;;;9.30;68.00;;;;;;5094803;28;20024;-80
2021/03/15 10:32:14;;;;;;;9.77;1.60;;;9.10;64.70;;;;;;5096285;28;20028;-80
2021/03/15 10:34:40;;;;;;;10.05;1.95;;;8.80;64.50;;;;;;5094425;28;20522;-79
2021/03/15 10:37:06;;;;;;;13.90;1.98;;;8.90;64.40;;;;;;5095629;28;20362;-80
2021/03/15 10:39:31;;;;;;;9.13;1.70;;;8.90;64.60;;;;;;5094964;28;20024;-80
2021/03/15 10:41:57;;;;;;;7.28;1.30;;;9.00;64.50;;;;;;5094408;28;20046;-80
2021/03/15 10:44:23;;;;;;;10.15;2.00;;;9.00;65.20;;;;;;5094221;28;20107;-80
2021/03/15 10:46:50;;;;;;;11.23;2.00;;;8.90;65.50;;;;;;5094391;28;20077;-79
2021/03/15 10:49:26;;;;;;;9.20;1.60;;;8.80;66.90;;;;;;5093290;28;20020;-80
2021/03/15 10:51:53;;;;;;;13.43;2.42;;;8.70;68.40;;;;;;5094993;28;20024;-79
2021/03/15 10:54:30;;;;;;;10.35;1.77;;;8.80;68.80;;;;;;5093539;28;20028;-80
2021/03/15 10:57:19;;;;;;;12.68;2.10;;;8.70;69.90;;;;;;5095009;28;20381;-80
2021/03/15 10:59:45;;;;;;;12.18;1.80;;;8.70;69.00;;;;;;5094262;28;20031;-80
2021/03/15 11:02:20;;;;;;;9.38;1.88;;;8.80;68.20;;;;;;5095355;28;20464;-80
2021/03/15 11:04:54;;;;;;;9.60;2.10;;;8.70;68.50;;;;;;5078187;28;20032;-80
2021/03/15 11:07:30;;;;;;;9.20;1.60;;;8.60;69.00;;;;;;5094346;28;20091;-79
2021/03/15 11:10:07;;;;;;;16.13;2.42;;;8.50;70.30;;;;;;5093973;28;20020;-79
2021/03/15 11:12:36;;;;;;;10.82;1.73;;;8.40;71.40;;;;;;5095659;28;20392;-79
2021/03/15 11:15:08;;;;;;;12.35;1.88;;;8.40;72.60;;;;;;5094314;28;20035;-78
2021/03/15 11:17:34;;;;;;;15.48;2.95;;;8.40;73.10;;;;;;5094875;28;20035;-78
2021/03/15 11:20:00;;;;;;;17.45;2.40;;;8.30;73.30;;;;;;5093664;28;20415;-79
2021/03/15 11:22:25;;;;;;;14.83;2.43;;;8.50;73.20;;;;;;5095251;28;20028;-78
2021/03/15 11:25:08;;;;;;;11.50;2.03;;;8.40;73.60;;;;;;5094811;28;20032;-79
2021/03/15 11:27:34;;;;;;;11.50;2.42;;;8.40;73.80;;;;;;5094748;28;20389;-79
2021/03/15 11:29:59;;;;;;;16.02;2.25;;;8.60;71.40;;;;;;5094263;28;20491;-79
2021/03/15 11:32:25;;;;;;;11.50;2.22;;;8.90;69.30;;;;;;5094554;28;20032;-78
2021/03/15 11:34:51;;;;;;;11.07;2.38;;;9.20;68.80;;;;;;5093058;28;20449;-78
2021/03/15 11:37:36;;;;;;;10.02;2.20;;;9.00;68.10;;;;;;5093595;28;20028;-78
2021/03/15 11:40:05;;;;;;;12.55;2.03;;;8.90;66.00;;;;;;5093074;28;20039;-78
2021/03/15 11:42:31;;;;;;;8.85;1.60;;;8.90;67.70;;;;;;5094651;28;20461;-78
2021/03/15 11:44:57;;;;;;;9.60;1.50;;;8.90;67.40;;;;;;5077167;28;20035;-79
2021/03/15 11:47:23;;;;;;;8.48;1.30;;;8.80;68.20;;;;;;5094402;28;20035;-79
2021/03/15 11:49:48;;;;;;;9.95;1.65;;;8.80;68.50;;;;;;5093452;28;20028;-79
2021/03/15 11:52:27;;;;;;;10.02;1.80;;;9.00;68.60;;;;;;5076430;28;20035;-80
2021/03/15 11:54:53;;;;;;;9.65;1.63;;;8.70;68.40;;;;;;5094359;28;20036;-80
2021/03/15 11:57:18;;;;;;;9.20;2.28;;;8.60;68.80;;;;;;5076422;28;20024;-80
2021/03/15 11:59:44;;;;;;;7.22;1.90;;;8.70;68.60;;;;;;5093709;28;20307;-80
2021/03/15 12:02:09;;;;;;;8.30;2.08;;;8.70;69.30;;;;;;5093810;28;20024;-79
2021/03/15 12:04:35;;;;;;;8.57;1.67;;;9.10;67.30;;;;;;5076493;28;20168;-79
2021/03/15 12:07:01;;;;;;;9.43;1.77;;;9.30;67.00;;;;;;5090446;28;20032;-77
2021/03/15 12:09:28;;;;;;;12.05;1.40;;;9.60;64.50;;;;;;5092365;28;20032;-78
2021/03/15 12:11:56;;;;;;;4.25;0.77;;;9.40;60.70;;;;;;5092277;28;20153;-78
2021/03/15 12:14:22;;;;;;;9.77;1.23;;;9.40;61.90;;;;;;5092725;28;20043;-79
2021/03/15 12:16:48;;;;;;;13.18;1.60;;;9.50;63.10;;;;;;5091077;28;20377;-79
2021/03/15 12:19:14;;;;;;;7.05;1.17;;;9.30;64.20;;;;;;5092543;28;20388;-79
2021/03/15 12:21:40;;;;;;;9.10;1.95;;;9.20;65.80;;;;;;5090558;28;20086;-78
2021/03/15 12:24:06;;;;;;;9.63;1.95;;;8.70;68.50;;;;;;5092090;28;20465;-78
2021/03/15 12:26:32;;;;;;;6.93;1.20;;;8.50;69.50;;;;;;5075432;28;20059;-79
2021/03/15 12:28:57;;;;;;;8.98;1.58;;;8.70;69.80;;;;;;5080297;28;20051;-82
2021/03/15 12:31:23;;;;;;;11.43;1.83;;;8.60;70.60;;;;;;5089917;28;20028;-78
2021/03/15 12:33:49;;;;;;;9.52;1.63;;;8.90;70.90;;;;;;5089851;28;20036;-79
2021/03/15 12:36:16;;;;;;;10.55;1.40;;;9.20;69.30;;;;;;5092099;28;20062;-80
2021/03/15 12:38:42;;;;;;;14.30;1.38;;;9.40;67.80;;;;;;5090676;28;20036;-79
2021/03/15 12:41:08;;;;;;;7.65;1.42;;;9.50;64.10;;;;;;5092355;28;20024;-79
2021/03/15 12:43:34;;;;;;;6.30;1.35;;;9.40;63.70;;;;;;5092145;28;20028;-79
2021/03/15 12:45:59;;;;;;;10.25;1.52;;;9.40;63.90;;;;;;5093144;28;20031;-79
2021/03/15 12:48:25;;;;;;;9.10;1.23;;;9.20;64.50;;;;;;5093341;28;20107;-79
2021/03/15 12:50:50;;;;;;;9.32;1.95;;;9.10;65.80;;;;;;5093376;28;20036;-79
2021/03/15 12:53:16;;;;;;;8.68;1.48;;;9.00;65.10;;;;;;5092728;28;20422;-78
2021/03/15 12:55:42;;;;;;;9.90;2.17;;;8.80;65.90;;;;;;5075684;28;20040;-78